createdAt,value
2019-03-22T00:02:23.812Z,2.70
2019-03-22T00:05:04.810Z,2.60
2019-03-22T00:07:45.516Z,2.60
2019-03-22T00:10:26.379Z,2.70
2019-03-22T00:13:07.470Z,2.60
2019-03-22T00:15:48.613Z,2.60
2019-03-22T00:18:30.066Z,2.70
2019-03-22T00:21:10.754Z,2.70
2019-03-22T00:23:51.828Z,2.60
2019-03-22T00:26:32.736Z,2.60
2019-03-22T00:29:13.397Z,2.60
2019-03-22T00:31:54.148Z,2.50
2019-03-22T00:34:35.259Z,2.50
2019-03-22T00:37:04.841Z,2.50
2019-03-22T00:39:53.178Z,2.50
2019-03-22T00:42:34.441Z,2.40
2019-03-22T00:45:15.118Z,2.30
2019-03-22T00:47:55.938Z,2.30
2019-03-22T00:50:36.924Z,2.30
2019-03-22T00:53:17.765Z,2.30
2019-03-22T00:55:58.585Z,2.30
2019-03-22T00:58:39.434Z,2.40
2019-03-22T01:01:20.828Z,2.40
2019-03-22T01:04:01.788Z,2.40
2019-03-22T01:06:42.524Z,2.30
2019-03-22T01:09:23.356Z,2.20
2019-03-22T01:12:04.112Z,2.30
2019-03-22T01:14:45.412Z,2.20
2019-03-22T01:17:26.228Z,2.10
2019-03-22T01:20:07.009Z,2.20
2019-03-22T01:22:48.025Z,2.20
2019-03-22T01:25:28.735Z,2.20
2019-03-22T01:28:09.632Z,2.10
2019-03-22T01:30:50.872Z,2.00
2019-03-22T01:33:31.621Z,2.10
2019-03-22T01:36:12.464Z,2.10
2019-03-22T01:38:53.383Z,1.90
2019-03-22T01:41:34.093Z,1.90
2019-03-22T01:44:15.209Z,2.00
2019-03-22T01:46:56.031Z,2.00
2019-03-22T01:49:36.575Z,2.00
2019-03-22T01:52:17.209Z,2.00
2019-03-22T01:54:57.795Z,1.90
2019-03-22T01:57:38.548Z,1.90
2019-03-22T02:00:19.555Z,1.90
2019-03-22T02:03:00.242Z,1.80
2019-03-22T02:05:40.718Z,1.70
2019-03-22T02:08:21.392Z,1.80
2019-03-22T02:11:02.704Z,1.70
2019-03-22T02:13:43.663Z,1.70
2019-03-22T02:16:24.449Z,1.80
2019-03-22T02:19:05.200Z,1.80
2019-03-22T02:21:46.065Z,1.80
2019-03-22T02:24:27.040Z,1.80
2019-03-22T02:27:07.964Z,1.80
2019-03-22T02:29:49.205Z,1.80
2019-03-22T02:32:29.973Z,1.80
2019-03-22T02:35:26.944Z,1.80
2019-03-22T02:37:53.833Z,1.90
2019-03-22T02:40:34.840Z,1.80
2019-03-22T02:43:15.861Z,1.80
2019-03-22T02:45:56.955Z,1.70
2019-03-22T02:48:37.767Z,1.70
2019-03-22T02:51:18.461Z,1.70
2019-03-22T02:53:58.973Z,1.70
2019-03-22T02:56:39.970Z,1.80
2019-03-22T02:59:20.741Z,1.70
2019-03-22T03:02:01.892Z,1.60
2019-03-22T03:04:42.661Z,1.50
2019-03-22T03:07:23.472Z,1.50
2019-03-22T03:10:04.266Z,1.50
2019-03-22T03:12:45.186Z,1.50
2019-03-22T03:15:25.968Z,1.50
2019-03-22T03:18:06.564Z,1.40
2019-03-22T03:20:47.398Z,1.30
2019-03-22T03:23:28.429Z,1.40
2019-03-22T03:26:08.990Z,1.40
2019-03-22T03:28:49.810Z,1.40
2019-03-22T03:31:30.698Z,1.40
2019-03-22T03:34:11.784Z,1.30
2019-03-22T03:36:52.748Z,1.20
2019-03-22T03:39:33.196Z,1.20
2019-03-22T03:42:02.604Z,1.10
2019-03-22T03:44:51.030Z,1.20
2019-03-22T03:47:39.433Z,1.20
2019-03-22T03:50:20.465Z,1.30
2019-03-22T03:53:01.041Z,1.30
2019-03-22T03:55:41.786Z,1.30
2019-03-22T03:58:22.480Z,1.20
2019-03-22T04:01:03.251Z,1.30
2019-03-22T04:03:43.808Z,1.40
2019-03-22T04:06:24.466Z,1.40
2019-03-22T04:09:05.151Z,1.30
2019-03-22T04:11:46.056Z,1.30
2019-03-22T04:14:26.650Z,1.30
2019-03-22T04:17:07.164Z,1.30
2019-03-22T04:19:48.122Z,1.30
2019-03-22T04:22:28.764Z,1.30
2019-03-22T04:25:09.680Z,1.30
2019-03-22T04:27:50.565Z,1.30
2019-03-22T04:30:31.355Z,1.20
2019-03-22T04:33:12.224Z,1.30
2019-03-22T04:35:52.953Z,1.30
2019-03-22T04:38:33.940Z,1.30
2019-03-22T04:41:14.806Z,1.20
2019-03-22T04:43:55.506Z,1.20
2019-03-22T04:46:36.431Z,1.20
2019-03-22T04:49:17.296Z,1.10
2019-03-22T04:51:58.197Z,1.00
2019-03-22T04:54:38.937Z,0.90
2019-03-22T04:57:19.728Z,0.90
2019-03-22T05:00:00.604Z,1.00
2019-03-22T05:02:41.013Z,0.90
2019-03-22T05:05:21.892Z,0.90
2019-03-22T05:08:03.130Z,0.90
2019-03-22T05:10:44.026Z,0.80
2019-03-22T05:13:24.792Z,0.80
2019-03-22T05:16:05.505Z,0.80
2019-03-22T05:18:46.365Z,0.90
2019-03-22T05:21:27.419Z,0.90
2019-03-22T05:24:08.016Z,0.80
2019-03-22T05:26:48.881Z,0.80
2019-03-22T05:29:30.806Z,0.80
2019-03-22T05:32:12.011Z,0.80
2019-03-22T05:34:53.062Z,1.00
2019-03-22T05:37:33.808Z,1.00
2019-03-22T05:40:14.749Z,1.00
2019-03-22T05:42:55.588Z,1.00
2019-03-22T05:45:36.519Z,1.00
2019-03-22T05:48:06.076Z,1.10
2019-03-22T05:51:13.552Z,1.10
2019-03-22T05:54:01.895Z,1.00
2019-03-22T05:56:42.738Z,1.00
2019-03-22T05:59:23.691Z,1.00
2019-03-22T06:02:04.266Z,1.00
2019-03-22T06:04:44.619Z,1.10
2019-03-22T06:07:25.248Z,1.20
2019-03-22T06:10:06.108Z,1.10
2019-03-22T06:12:46.764Z,1.10
2019-03-22T06:15:27.412Z,1.10
2019-03-22T06:17:56.992Z,1.20
2019-03-22T06:20:45.405Z,1.30
2019-03-22T06:23:33.812Z,1.40
2019-03-22T06:26:14.963Z,1.40
2019-03-22T06:28:55.833Z,1.50
2019-03-22T06:31:37.205Z,1.50
2019-03-22T06:34:17.656Z,1.50
2019-03-22T06:36:58.268Z,1.60
2019-03-22T06:39:39.131Z,1.60
2019-03-22T06:42:20.336Z,1.80
2019-03-22T06:45:01.696Z,2.10
2019-03-22T06:47:42.369Z,2.50
2019-03-22T06:50:23.196Z,2.80
2019-03-22T06:53:04.036Z,3.10
2019-03-22T06:55:44.892Z,3.40
2019-03-22T06:58:25.752Z,3.60
2019-03-22T07:01:06.498Z,3.90
2019-03-22T07:03:47.756Z,4.10
2019-03-22T07:06:28.495Z,4.40
2019-03-22T07:09:09.160Z,4.70
2019-03-22T07:11:50.141Z,5.00
2019-03-22T07:14:31.161Z,5.20
2019-03-22T07:17:11.536Z,5.30
2019-03-22T07:19:52.183Z,5.60
2019-03-22T07:22:21.663Z,5.70
2019-03-22T07:25:10.176Z,5.90
2019-03-22T07:27:51.276Z,5.90
2019-03-22T07:30:32.189Z,6.10
2019-03-22T07:33:13.100Z,6.10
2019-03-22T07:35:54.109Z,6.30
2019-03-22T07:38:34.736Z,6.40
2019-03-22T07:41:15.624Z,6.60
2019-03-22T07:43:56.624Z,6.80
2019-03-22T07:46:37.420Z,6.90
2019-03-22T07:49:18.151Z,7.10
2019-03-22T07:51:58.936Z,7.20
2019-03-22T07:54:39.765Z,7.40
2019-03-22T07:57:20.976Z,7.40
2019-03-22T08:00:01.920Z,7.40
2019-03-22T08:02:42.747Z,7.50
2019-03-22T08:05:23.731Z,7.70
2019-03-22T08:08:04.081Z,7.90
2019-03-22T08:10:44.871Z,8.00
2019-03-22T08:13:25.800Z,8.10
2019-03-22T08:16:06.420Z,8.30
2019-03-22T08:18:46.869Z,8.30
2019-03-22T08:21:27.498Z,8.40
2019-03-22T08:24:08.594Z,8.60
2019-03-22T08:26:49.411Z,8.80
2019-03-22T08:29:30.172Z,8.90
2019-03-22T08:32:10.847Z,8.90
2019-03-22T08:34:51.718Z,8.90
2019-03-22T08:37:32.759Z,9.10
2019-03-22T08:40:13.689Z,9.20
2019-03-22T08:42:54.137Z,9.40
2019-03-22T08:45:34.536Z,9.50
2019-03-22T08:48:15.224Z,9.60
2019-03-22T08:50:56.164Z,9.60
2019-03-22T08:53:37.019Z,9.60
2019-03-22T08:56:17.785Z,9.60
2019-03-22T08:58:58.752Z,9.70
2019-03-22T09:01:39.556Z,9.90
2019-03-22T09:04:20.365Z,10.10
2019-03-22T09:07:01.509Z,10.00
2019-03-22T09:09:42.369Z,10.00
2019-03-22T09:12:23.268Z,10.00
2019-03-22T09:15:04.198Z,10.10
2019-03-22T09:17:45.157Z,10.00
2019-03-22T09:20:25.848Z,10.20
2019-03-22T09:23:06.755Z,10.30
2019-03-22T09:25:47.527Z,10.50
2019-03-22T09:28:27.872Z,10.50
2019-03-22T09:31:10.486Z,10.60
2019-03-22T09:33:50.844Z,10.70
2019-03-22T09:36:31.819Z,10.70
2019-03-22T09:39:12.376Z,10.60
2019-03-22T09:41:53.329Z,10.50
2019-03-22T09:44:43.117Z,10.30
2019-03-22T09:47:16.687Z,10.30
2019-03-22T09:49:46.493Z,10.20
2019-03-22T09:52:34.990Z,10.20
2019-03-22T09:55:23.481Z,10.20
2019-03-22T09:58:11.907Z,10.40
2019-03-22T10:00:53.032Z,10.50
2019-03-22T10:03:34.099Z,10.60
2019-03-22T10:06:15.149Z,10.80
2019-03-22T10:08:56.493Z,10.90
2019-03-22T10:11:37.588Z,11.00
2019-03-22T10:14:21.301Z,10.90
2019-03-22T10:17:01.815Z,11.00
2019-03-22T10:19:42.368Z,11.20
2019-03-22T10:22:23.090Z,11.10
2019-03-22T10:25:03.730Z,11.10
2019-03-22T10:27:44.468Z,11.20
2019-03-22T10:30:25.615Z,11.40
2019-03-22T10:35:52.127Z,11.50
2019-03-22T10:38:32.567Z,11.50
2019-03-22T10:41:13.426Z,11.50
2019-03-22T10:43:54.275Z,11.40
2019-03-22T10:46:35.102Z,11.40
2019-03-22T10:49:15.896Z,11.50
2019-03-22T10:51:58.161Z,11.50
2019-03-22T10:54:39.503Z,11.60
2019-03-22T10:57:20.228Z,11.60
2019-03-22T11:00:01.008Z,11.70
2019-03-22T11:02:41.560Z,11.80
2019-03-22T11:05:22.161Z,12.00
2019-03-22T11:08:03.012Z,12.00
2019-03-22T11:10:44.290Z,12.00
2019-03-22T11:13:24.945Z,12.10
2019-03-22T11:16:06.001Z,12.10
2019-03-22T11:18:46.796Z,12.10
2019-03-22T11:21:27.652Z,12.10
2019-03-22T11:24:08.648Z,12.30
2019-03-22T11:26:49.538Z,12.40
2019-03-22T11:29:30.628Z,12.40
2019-03-22T11:32:12.801Z,12.50
2019-03-22T11:34:54.305Z,12.60
2019-03-22T11:37:35.040Z,12.80
2019-03-22T11:40:15.808Z,12.90
2019-03-22T11:42:56.844Z,12.90
2019-03-22T11:45:38.264Z,13.00
2019-03-22T11:48:19.820Z,13.00
2019-03-22T11:51:01.007Z,13.00
2019-03-22T11:53:41.828Z,12.90
2019-03-22T11:56:23.053Z,13.10
2019-03-22T11:59:03.770Z,13.10
2019-03-22T12:01:44.195Z,13.30
2019-03-22T12:04:25.021Z,13.50
2019-03-22T12:07:06.018Z,13.50
2019-03-22T12:09:46.887Z,13.50
2019-03-22T12:12:28.087Z,13.50
2019-03-22T12:15:09.028Z,13.60
2019-03-22T12:17:49.669Z,13.60
2019-03-22T12:20:30.535Z,13.70
2019-03-22T12:23:10.974Z,13.80
2019-03-22T12:25:51.484Z,13.60
2019-03-22T12:28:32.337Z,13.60
2019-03-22T12:31:13.024Z,13.70
2019-03-22T12:33:42.604Z,13.80
2019-03-22T12:36:31.016Z,13.70
2019-03-22T12:39:19.449Z,13.90
2019-03-22T12:42:00.789Z,14.00
2019-03-22T12:44:41.654Z,14.20
2019-03-22T12:47:22.241Z,14.40
2019-03-22T12:50:03.184Z,14.50
2019-03-22T12:52:43.868Z,14.60
2019-03-22T12:55:24.550Z,14.80
2019-03-22T12:58:05.136Z,15.00
2019-03-22T13:00:45.656Z,15.30
2019-03-22T13:03:26.440Z,15.40
2019-03-22T13:06:07.116Z,15.40
2019-03-22T13:08:47.939Z,15.40
2019-03-22T13:11:28.568Z,15.40
2019-03-22T13:14:09.400Z,15.60
2019-03-22T13:16:50.240Z,15.80
2019-03-22T13:19:31.107Z,15.90
2019-03-22T13:22:11.976Z,16.00
2019-03-22T13:24:52.796Z,16.00
2019-03-22T13:27:33.599Z,16.10
2019-03-22T13:30:14.485Z,16.10
2019-03-22T13:32:55.020Z,16.10
2019-03-22T13:35:35.723Z,16.20
2019-03-22T13:38:16.567Z,16.20
2019-03-22T13:40:57.141Z,16.30
2019-03-22T13:43:38.026Z,16.30
2019-03-22T13:46:18.817Z,16.30
2019-03-22T13:48:59.662Z,16.30
2019-03-22T13:51:40.442Z,16.40
2019-03-22T13:54:21.265Z,16.60
2019-03-22T13:57:02.133Z,16.70
2019-03-22T13:59:43.205Z,16.70
2019-03-22T14:02:23.969Z,16.80
2019-03-22T14:05:04.989Z,17.00
2019-03-22T14:07:45.708Z,17.10
2019-03-22T14:10:26.583Z,17.30
2019-03-22T14:12:56.140Z,17.30
2019-03-22T14:15:44.545Z,17.40
2019-03-22T14:18:32.905Z,17.60
2019-03-22T14:21:13.761Z,17.70
2019-03-22T14:23:54.761Z,17.90
2019-03-22T14:26:35.867Z,18.20
2019-03-22T14:29:16.734Z,18.40
2019-03-22T14:31:57.492Z,18.60
2019-03-22T14:34:38.352Z,18.90
2019-03-22T14:37:19.332Z,19.20
2019-03-22T14:40:00.128Z,19.30
2019-03-22T14:42:40.701Z,19.50
2019-03-22T14:45:21.282Z,19.80
2019-03-22T14:48:02.092Z,20.10
2019-03-22T14:50:42.852Z,20.30
2019-03-22T14:53:23.495Z,20.60
2019-03-22T14:56:04.081Z,21.10
2019-03-22T14:58:44.900Z,21.40
2019-03-22T15:01:25.875Z,21.60
2019-03-22T15:04:06.628Z,21.70
2019-03-22T15:06:47.211Z,22.10
2019-03-22T15:09:27.928Z,22.10
2019-03-22T15:12:08.695Z,21.90
2019-03-22T15:15:08.517Z,22.00
2019-03-22T15:23:38.278Z,22.40
2019-03-22T15:26:37.692Z,22.10
2019-03-22T15:29:37.278Z,21.90
2019-03-22T15:32:30.301Z,21.90
2019-03-22T15:35:35.941Z,21.90
2019-03-22T15:38:35.538Z,21.70
2019-03-22T15:41:16.015Z,21.50
2019-03-22T15:43:57.137Z,21.50
2019-03-22T15:46:38.105Z,21.70
2019-03-22T15:49:07.729Z,21.60
2019-03-22T15:51:56.245Z,20.60
2019-03-22T15:54:37.298Z,19.80
2019-03-22T15:57:17.827Z,19.00
2019-03-22T15:59:58.489Z,18.30
2019-03-22T16:02:39.228Z,17.60
2019-03-22T16:05:20.435Z,17.10
2019-03-22T16:08:01.314Z,16.70
2019-03-22T16:10:42.121Z,16.30
2019-03-22T16:13:22.844Z,16.00
2019-03-22T16:16:03.461Z,15.80
2019-03-22T16:18:44.097Z,15.50
2019-03-22T16:21:24.646Z,15.30
2019-03-22T16:24:05.116Z,15.00
2019-03-22T16:26:45.725Z,14.80
2019-03-22T16:29:26.852Z,14.60
2019-03-22T16:32:07.828Z,14.50
2019-03-22T16:34:48.791Z,14.40
2019-03-22T16:37:29.543Z,14.20
2019-03-22T16:40:10.206Z,14.00
2019-03-22T16:42:50.923Z,13.80
2019-03-22T16:45:31.582Z,13.70
2019-03-22T16:48:12.210Z,13.50
2019-03-22T16:50:52.882Z,13.40
2019-03-22T16:53:33.922Z,13.30
2019-03-22T16:56:14.782Z,13.20
2019-03-22T16:58:55.756Z,13.00
2019-03-22T17:01:36.591Z,12.90
2019-03-22T17:04:17.337Z,12.90
2019-03-22T17:06:58.182Z,12.70
2019-03-22T17:09:39.073Z,12.60
2019-03-22T17:12:19.776Z,12.50
2019-03-22T17:15:00.898Z,12.40
2019-03-22T17:17:42.192Z,12.30
2019-03-22T17:20:23.024Z,12.20
2019-03-22T17:23:03.762Z,12.10
2019-03-22T17:25:44.911Z,12.10
2019-03-22T17:28:26.027Z,12.00
2019-03-22T17:31:06.888Z,11.90
2019-03-22T17:33:47.501Z,11.80
2019-03-22T17:36:28.316Z,11.60
2019-03-22T17:39:08.829Z,11.40
2019-03-22T17:41:49.578Z,11.30
2019-03-22T17:44:30.438Z,11.30
2019-03-22T17:47:11.366Z,11.20
2019-03-22T17:49:52.020Z,11.10
2019-03-22T17:52:32.848Z,11.00
2019-03-22T17:55:13.360Z,11.00
2019-03-22T17:57:54.085Z,10.80
2019-03-22T18:00:34.997Z,10.80
2019-03-22T18:03:16.188Z,10.80
2019-03-22T18:05:56.657Z,10.80
2019-03-22T18:08:37.457Z,10.80
2019-03-22T18:11:18.308Z,10.70
2019-03-22T18:13:59.164Z,10.70
2019-03-22T18:16:40.045Z,10.70
2019-03-22T18:19:09.534Z,10.60
2019-03-22T18:21:57.952Z,10.50
2019-03-22T18:24:46.309Z,10.30
2019-03-22T18:27:27.404Z,10.20
2019-03-22T18:30:07.896Z,10.20
2019-03-22T18:32:48.888Z,10.20
2019-03-22T18:35:29.366Z,10.20
2019-03-22T18:37:58.951Z,10.20
2019-03-22T18:40:47.353Z,10.20
2019-03-22T18:43:35.780Z,10.20
2019-03-22T18:46:17.003Z,10.30
2019-03-22T18:48:57.841Z,10.20
2019-03-22T18:51:38.452Z,10.10
2019-03-22T18:54:18.792Z,10.00
2019-03-22T18:56:59.244Z,10.10
2019-03-22T18:59:40.085Z,10.10
2019-03-22T19:02:21.369Z,9.90
2019-03-22T19:05:02.507Z,9.80
2019-03-22T19:07:43.000Z,9.70
2019-03-22T19:10:23.610Z,9.60
2019-03-22T19:13:04.032Z,9.60
2019-03-22T19:15:44.594Z,9.60
2019-03-22T19:18:25.472Z,9.70
2019-03-22T19:21:06.696Z,9.80
2019-03-22T19:23:47.836Z,9.80
2019-03-22T19:26:30.483Z,9.80
2019-03-22T19:29:11.056Z,9.60
2019-03-22T19:31:51.437Z,9.50
2019-03-22T19:34:31.972Z,9.40
2019-03-22T19:37:13.204Z,9.30
2019-03-22T19:39:53.908Z,9.20
2019-03-22T19:42:34.361Z,9.10
2019-03-22T19:45:16.618Z,9.10
2019-03-22T19:47:57.352Z,9.10
2019-03-22T19:50:38.351Z,9.40
2019-03-22T19:53:19.856Z,9.40
2019-03-22T19:56:00.989Z,9.40
2019-03-22T19:58:42.069Z,9.40
2019-03-22T20:01:22.816Z,9.40
2019-03-22T20:04:03.569Z,9.20
2019-03-22T20:06:44.419Z,9.20
2019-03-22T20:09:25.380Z,9.10
2019-03-22T20:12:06.076Z,9.10
2019-03-22T20:14:46.984Z,9.00
2019-03-22T20:17:27.744Z,9.00
2019-03-22T20:20:08.505Z,9.00
2019-03-22T20:22:49.512Z,9.10
2019-03-22T20:25:30.057Z,9.00
2019-03-22T20:28:11.021Z,8.90
2019-03-22T20:30:51.993Z,8.80
2019-03-22T20:33:32.735Z,8.60
2019-03-22T20:36:13.474Z,8.50
2019-03-22T20:38:54.472Z,8.40
2019-03-22T20:41:35.241Z,8.30
2019-03-22T20:44:15.948Z,8.30
2019-03-22T20:46:56.747Z,8.40
2019-03-22T20:49:37.442Z,8.40
2019-03-22T20:52:18.174Z,8.30
2019-03-22T20:54:59.224Z,8.20
2019-03-22T20:57:40.044Z,8.10
2019-03-22T21:00:20.919Z,8.00
2019-03-22T21:03:01.581Z,7.90
2019-03-22T21:05:42.424Z,7.90
2019-03-22T21:08:23.240Z,7.90
2019-03-22T21:11:04.128Z,7.90
2019-03-22T21:13:44.884Z,8.00
2019-03-22T21:16:25.799Z,8.00
2019-03-22T21:19:06.864Z,8.00
2019-03-22T21:21:47.784Z,7.90
2019-03-22T21:24:28.668Z,7.80
2019-03-22T21:27:15.586Z,7.60
2019-03-22T21:29:52.679Z,7.50
2019-03-22T21:32:33.496Z,7.40
2019-03-22T21:35:22.544Z,7.30
2019-03-22T21:37:57.112Z,7.30
2019-03-22T21:40:38.054Z,7.30
2019-03-22T21:43:18.455Z,7.20
2019-03-22T21:45:59.494Z,7.20
2019-03-22T21:48:40.060Z,7.20
2019-03-22T21:51:22.010Z,7.20
2019-03-22T21:54:02.872Z,7.20
2019-03-22T21:56:43.467Z,7.10
2019-03-22T21:59:24.303Z,7.10
2019-03-22T22:02:05.238Z,7.00
2019-03-22T22:04:46.256Z,7.00
2019-03-22T22:07:27.062Z,6.90
2019-03-22T22:10:07.933Z,6.80
2019-03-22T22:12:48.696Z,6.80
2019-03-22T22:15:29.150Z,7.00
2019-03-22T22:18:09.858Z,7.20
2019-03-22T22:20:51.054Z,7.40
2019-03-22T22:23:31.782Z,7.30
2019-03-22T22:26:12.448Z,7.20
2019-03-22T22:28:53.338Z,7.20
2019-03-22T22:31:22.823Z,7.20
2019-03-22T22:34:11.259Z,7.10
2019-03-22T22:36:59.668Z,7.10
2019-03-22T22:39:40.789Z,7.00
2019-03-22T22:42:21.206Z,6.90
2019-03-22T22:45:01.588Z,6.70
2019-03-22T22:47:42.319Z,6.60
2019-03-22T22:50:22.688Z,6.60
2019-03-22T22:52:52.229Z,6.70
2019-03-22T22:55:40.892Z,6.70
2019-03-22T22:58:29.389Z,6.70
2019-03-22T23:01:10.098Z,6.70
2019-03-22T23:03:50.554Z,6.70
2019-03-22T23:06:32.515Z,6.60
2019-03-22T23:09:02.028Z,6.50
2019-03-22T23:11:50.446Z,6.30
2019-03-22T23:14:31.393Z,6.30
2019-03-22T23:17:12.303Z,6.20
2019-03-22T23:19:53.430Z,6.10
2019-03-22T23:22:34.230Z,6.10
2019-03-22T23:25:15.205Z,6.10
2019-03-22T23:27:56.045Z,6.20
2019-03-22T23:30:36.513Z,6.20
2019-03-22T23:33:17.193Z,6.20
2019-03-22T23:36:00.701Z,6.30
2019-03-22T23:38:41.297Z,6.50
2019-03-22T23:41:22.557Z,6.60
2019-03-22T23:44:03.566Z,6.70
2019-03-22T23:46:44.384Z,6.70
2019-03-22T23:49:25.070Z,6.70
2019-03-22T23:52:05.947Z,6.60
2019-03-22T23:54:46.849Z,6.40
2019-03-22T23:57:27.734Z,6.30
